Time;durP1;ratioP1;P1;durP2;ratioP2;P2;SDS_P1;SDS_P2;PMS_P1;PMS_P2;Temp;Humidity;BMP_temperature;BMP_pressure;BME280_temperature;BME280_humidity;BME280_pressure;Samples;Min_cycle;Max_cycle;Signal;HPM_P1;HPM_P2
2022/11/15 00:00:39;;;;;;;3.43;2.83;;;;;;;;;;5034105;28;87488;-66
2022/11/15 00:03:08;;;;;;;5.77;2.93;;;;;;;;;;5041031;28;87083;-67
2022/11/15 00:05:36;;;;;;;7.03;2.87;;;;;;;;;;5057497;27;86986;-67
2022/11/15 00:08:05;;;;;;;4.73;2.53;;;;;;;;;;5061723;27;92094;-66
2022/11/15 00:10:33;;;;;;;3.97;2.67;;;;;;;;;;5061733;27;89180;-67
2022/11/15 00:13:01;;;;;;;5.57;3.10;;;;;;;;;;5062899;27;86739;-66
2022/11/15 00:15:31;;;;;;;4.40;2.83;;;;;;;;;;5062788;27;86185;-68
2022/11/15 00:17:59;;;;;;;2.90;2.23;;;;;;;;;;5062052;27;88079;-67
2022/11/15 00:20:27;;;;;;;5.30;2.20;;;;;;;;;;5061395;27;89433;-69
2022/11/15 00:22:56;;;;;;;4.57;2.67;;;;;;;;;;5048303;27;89771;-67
2022/11/15 00:25:24;;;;;;;5.00;2.97;;;;;;;;;;5041760;28;87005;-66
2022/11/15 00:27:56;;;;;;;3.80;2.23;;;;;;;;;;5041835;28;88653;-67
2022/11/15 00:30:24;;;;;;;3.10;2.23;;;;;;;;;;5052075;27;88767;-67
2022/11/15 00:32:54;;;;;;;2.83;1.87;;;;;;;;;;5062346;27;87109;-67
2022/11/15 00:35:22;;;;;;;6.13;2.83;;;;;;;;;;5062412;27;86974;-66
2022/11/15 00:37:51;;;;;;;9.40;2.67;;;;;;;;;;5062071;27;89165;-66
2022/11/15 00:40:19;;;;;;;4.33;2.57;;;;;;;;;;5061968;27;87852;-66
2022/11/15 00:42:47;;;;;;;2.47;2.20;;;;;;;;;;5061935;27;86915;-74
2022/11/15 00:45:15;;;;;;;4.63;2.47;;;;;;;;;;5061149;27;87251;-71
2022/11/15 00:47:46;;;;;;;3.67;2.37;;;;;;;;;;5064284;27;90117;-71
2022/11/15 00:50:15;;;;;;;6.27;2.50;;;;;;;;;;5064926;27;89813;-71
2022/11/15 00:52:44;;;;;;;3.10;1.73;;;;;;;;;;5054518;27;86993;-71
2022/11/15 00:55:14;;;;;;;6.03;2.60;;;;;;;;;;5044810;28;87009;-73
2022/11/15 00:57:43;;;;;;;5.00;2.90;;;;;;;;;;5044748;28;87005;-73
2022/11/15 01:00:12;;;;;;;4.37;2.70;;;;;;;;;;5044326;28;87634;-70
2022/11/15 01:02:40;;;;;;;4.43;2.60;;;;;;;;;;5049231;27;87035;-65
2022/11/15 01:05:09;;;;;;;5.00;2.77;;;;;;;;;;5063317;27;86171;-69
2022/11/15 01:07:39;;;;;;;3.80;3.23;;;;;;;;;;5066313;27;87943;-74
2022/11/15 01:10:07;;;;;;;4.30;2.33;;;;;;;;;;5069041;27;91179;-73
2022/11/15 01:12:36;;;;;;;5.47;2.67;;;;;;;;;;5069463;27;87975;-70
2022/11/15 01:15:04;;;;;;;4.67;2.57;;;;;;;;;;5066346;27;87084;-71
2022/11/15 01:17:32;;;;;;;5.53;2.77;;;;;;;;;;5085557;27;91952;-71
2022/11/15 01:20:01;;;;;;;4.80;2.53;;;;;;;;;;5085247;27;87668;-71
2022/11/15 01:22:29;;;;;;;2.90;2.13;;;;;;;;;;5078140;27;86977;-71
2022/11/15 01:24:59;;;;;;;4.53;2.53;;;;;;;;;;5064581;27;87161;-71
2022/11/15 01:27:28;;;;;;;3.13;2.13;;;;;;;;;;5064642;27;91537;-71
2022/11/15 01:29:56;;;;;;;4.27;2.50;;;;;;;;;;5074728;27;88816;-71
2022/11/15 01:32:24;;;;;;;5.03;2.90;;;;;;;;;;5085226;27;86794;-70
2022/11/15 01:34:53;;;;;;;3.57;2.80;;;;;;;;;;5074679;27;86938;-72
2022/11/15 01:37:21;;;;;;;5.90;2.53;;;;;;;;;;5064947;27;88362;-71
2022/11/15 01:39:49;;;;;;;3.27;1.97;;;;;;;;;;5060486;27;88759;-70
2022/11/15 01:42:19;;;;;;;4.90;2.80;;;;;;;;;;5082559;27;87142;-71
2022/11/15 01:44:48;;;;;;;4.73;2.33;;;;;;;;;;5082572;27;88060;-70
2022/11/15 01:47:17;;;;;;;7.43;2.80;;;;;;;;;;5084558;27;90621;-71
2022/11/15 01:49:48;;;;;;;3.40;2.50;;;;;;;;;;5082232;27;88727;-74
2022/11/15 01:52:17;;;;;;;3.33;2.63;;;;;;;;;;5074658;27;87110;-74
2022/11/15 01:54:46;;;;;;;4.33;2.77;;;;;;;;;;5076371;27;86216;-74
2022/11/15 01:57:14;;;;;;;8.33;2.53;;;;;;;;;;5074773;27;88952;-72
2022/11/15 01:59:44;;;;;;;2.23;1.77;;;;;;;;;;5058028;27;87222;-72
2022/11/15 02:02:13;;;;;;;6.13;2.27;;;;;;;;;;5050329;27;88106;-71
2022/11/15 02:04:42;;;;;;;3.47;2.53;;;;;;;;;;5045879;27;87064;-73
2022/11/15 02:07:11;;;;;;;2.47;1.83;;;;;;;;;;5049044;27;88679;-73
2022/11/15 02:09:40;;;;;;;4.93;2.30;;;;;;;;;;5055215;27;87883;-71
2022/11/15 02:12:08;;;;;;;6.23;2.80;;;;;;;;;;5051440;27;87074;-73
2022/11/15 02:14:37;;;;;;;5.17;2.73;;;;;;;;;;5057017;27;87532;-71
2022/11/15 02:17:09;;;;;;;6.17;2.80;;;;;;;;;;5062485;27;87776;-71
2022/11/15 02:19:42;;;;;;;4.70;2.77;;;;;;;;;;5050205;27;87640;-71
2022/11/15 02:22:12;;;;;;;6.83;2.77;;;;;;;;;;5043315;27;86994;-71
2022/11/15 02:24:47;;;;;;;4.33;2.77;;;;;;;;;;5056297;27;87474;-71
2022/11/15 02:27:30;;;;;;;5.47;2.67;;;;;;;;;;5051613;27;90102;-71
2022/11/15 02:30:08;;;;;;;3.37;2.43;;;;;;;;;;5063868;27;89337;-71
2022/11/15 02:32:40;;;;;;;4.87;2.67;;;;;;;;;;5062512;27;87164;-71
2022/11/15 02:35:10;;;;;;;4.67;1.93;;;;;;;;;;5063479;27;87000;-71
2022/11/15 02:37:40;;;;;;;3.57;2.80;;;;;;;;;;5046609;27;88101;-72
2022/11/15 02:40:09;;;;;;;4.20;2.30;;;;;;;;;;5056400;27;88051;-71
2022/11/15 02:45:37;;;;;;;4.60;2.50;;;;;;;;;;5009185;27;86446;-72
2022/11/15 02:48:07;;;;;;;3.63;1.80;;;;;;;;;;5044698;27;89118;-71
2022/11/15 02:50:35;;;;;;;6.20;2.93;;;;;;;;;;5042186;27;88923;-71
2022/11/15 02:53:03;;;;;;;4.73;2.07;;;;;;;;;;5042724;27;88028;-71
2022/11/15 02:55:32;;;;;;;5.00;2.27;;;;;;;;;;5040404;27;86971;-71
2022/11/15 02:58:04;;;;;;;8.23;3.13;;;;;;;;;;5044725;27;87587;-71
2022/11/15 03:00:33;;;;;;;3.90;2.53;;;;;;;;;;5042534;27;88641;-71
2022/11/15 03:03:16;;;;;;;3.63;1.90;;;;;;;;;;5058488;27;86988;-72
2022/11/15 03:05:46;;;;;;;3.80;2.33;;;;;;;;;;5022459;28;87249;-71
2022/11/15 03:08:19;;;;;;;3.77;2.57;;;;;;;;;;5043825;27;89184;-71
2022/11/15 03:10:48;;;;;;;5.30;2.50;;;;;;;;;;5022509;28;87596;-71
2022/11/15 03:13:20;;;;;;;2.90;2.17;;;;;;;;;;5039600;27;87019;-71
2022/11/15 03:15:49;;;;;;;5.37;2.60;;;;;;;;;;5042138;28;87059;-71
2022/11/15 03:18:21;;;;;;;4.27;2.13;;;;;;;;;;5058117;27;88597;-71
2022/11/15 03:20:49;;;;;;;6.57;3.23;;;;;;;;;;5062559;27;89015;-71
2022/11/15 03:23:17;;;;;;;3.43;1.90;;;;;;;;;;5060736;27;86951;-71
2022/11/15 03:25:47;;;;;;;5.20;2.43;;;;;;;;;;5041880;28;86821;-71
2022/11/15 03:28:20;;;;;;;5.37;2.47;;;;;;;;;;5045912;27;90513;-71
2022/11/15 03:30:48;;;;;;;5.73;2.40;;;;;;;;;;5042868;28;87436;-71
2022/11/15 03:33:17;;;;;;;3.03;2.37;;;;;;;;;;5042648;27;86927;-71
2022/11/15 03:35:47;;;;;;;11.40;2.80;;;;;;;;;;5061682;27;86151;-71
2022/11/15 03:38:16;;;;;;;6.90;2.70;;;;;;;;;;5048233;27;88033;-72
2022/11/15 03:40:47;;;;;;;5.57;2.53;;;;;;;;;;5061396;27;87050;-72
2022/11/15 03:43:16;;;;;;;3.70;1.90;;;;;;;;;;5048615;27;88008;-71
2022/11/15 03:45:45;;;;;;;4.73;2.37;;;;;;;;;;5041995;28;87041;-72
2022/11/15 03:48:14;;;;;;;4.13;2.17;;;;;;;;;;5044483;27;87597;-71
2022/11/15 03:50:43;;;;;;;3.90;2.17;;;;;;;;;;5059625;27;88564;-71
2022/11/15 03:53:13;;;;;;;5.00;2.43;;;;;;;;;;5050540;27;86994;-71
2022/11/15 03:55:41;;;;;;;3.03;1.97;;;;;;;;;;5058403;27;88112;-70
2022/11/15 03:58:09;;;;;;;4.97;2.10;;;;;;;;;;5051548;27;87982;-71
2022/11/15 04:00:37;;;;;;;3.33;2.23;;;;;;;;;;5072901;27;88899;-71
2022/11/15 04:03:07;;;;;;;4.00;1.90;;;;;;;;;;5081654;27;87026;-71
2022/11/15 04:05:35;;;;;;;3.03;1.90;;;;;;;;;;5082300;27;87048;-72
2022/11/15 04:08:03;;;;;;;3.20;2.00;;;;;;;;;;5078872;27;91999;-71
2022/11/15 04:10:33;;;;;;;3.60;2.10;;;;;;;;;;5068354;27;89698;-71
2022/11/15 04:13:03;;;;;;;2.47;2.10;;;;;;;;;;5069202;27;87009;-71
2022/11/15 04:15:31;;;;;;;3.33;1.83;;;;;;;;;;5081527;27;87061;-71
2022/11/15 04:18:00;;;;;;;2.13;1.97;;;;;;;;;;5070626;27;87122;-71
2022/11/15 04:26:03;;;;;;;5.20;1.80;;;;;;;;;;5081654;27;86185;-71
2022/11/15 04:28:31;;;;;;;5.77;2.33;;;;;;;;;;5076286;27;88259;-70
2022/11/15 04:31:00;;;;;;;2.80;1.90;;;;;;;;;;5065225;27;88899;-71
2022/11/15 04:33:28;;;;;;;3.40;2.23;;;;;;;;;;5066464;27;87976;-71
2022/11/15 04:38:43;;;;;;;2.53;1.57;;;;;;;;;;5073368;27;88674;-71
2022/11/15 04:41:13;;;;;;;4.73;2.17;;;;;;;;;;5073965;27;87829;-71
2022/11/15 04:43:41;;;;;;;2.10;1.50;;;;;;;;;;5068269;27;86905;-71
2022/11/15 04:46:09;;;;;;;4.47;2.00;;;;;;;;;;5065484;27;87033;-72
2022/11/15 04:48:38;;;;;;;8.07;2.20;;;;;;;;;;5073192;27;89143;-71
2022/11/15 04:51:06;;;;;;;3.23;1.87;;;;;;;;;;5085489;27;88314;-71
2022/11/15 04:53:34;;;;;;;2.77;1.83;;;;;;;;;;5078065;27;87069;-72
2022/11/15 04:56:03;;;;;;;3.03;1.80;;;;;;;;;;5075619;27;87663;-72
2022/11/15 04:58:33;;;;;;;2.37;1.67;;;;;;;;;;5077352;27;89871;-71
2022/11/15 05:01:07;;;;;;;3.97;1.70;;;;;;;;;;5062502;27;89973;-71
2022/11/15 05:06:22;;;;;;;1.57;1.20;;;;;;;;;;5084988;27;87053;-72
2022/11/15 05:08:50;;;;;;;2.30;1.63;;;;;;;;;;5070809;27;88132;-71
2022/11/15 05:11:18;;;;;;;2.63;1.80;;;;;;;;;;5079619;27;87940;-71
2022/11/15 05:13:48;;;;;;;1.93;1.80;;;;;;;;;;5085548;27;86954;-71
2022/11/15 05:16:16;;;;;;;3.57;2.30;;;;;;;;;;5076335;27;86762;-72
2022/11/15 05:18:45;;;;;;;1.90;1.77;;;;;;;;;;5068715;27;87994;-71
2022/11/15 05:21:13;;;;;;;7.77;2.07;;;;;;;;;;5085383;27;88696;-71
2022/11/15 05:23:42;;;;;;;1.80;1.53;;;;;;;;;;5081446;27;88003;-71
2022/11/15 05:26:10;;;;;;;2.37;1.67;;;;;;;;;;5085397;27;87081;-71
2022/11/15 05:28:39;;;;;;;2.30;1.40;;;;;;;;;;5081783;27;89090;-71
2022/11/15 05:31:09;;;;;;;2.13;1.53;;;;;;;;;;5064033;27;87278;-71
2022/11/15 05:33:37;;;;;;;1.53;1.43;;;;;;;;;;5066346;27;87063;-71
2022/11/15 05:36:06;;;;;;;4.07;1.70;;;;;;;;;;5085111;27;87194;-71
2022/11/15 05:38:34;;;;;;;1.70;1.60;;;;;;;;;;5081486;27;89050;-71
2022/11/15 05:41:03;;;;;;;2.93;1.57;;;;;;;;;;5084223;27;88788;-71
2022/11/15 05:43:31;;;;;;;1.47;1.37;;;;;;;;;;5084466;27;86706;-71
2022/11/15 05:46:00;;;;;;;4.93;1.40;;;;;;;;;;5043989;28;86942;-72
2022/11/15 05:48:29;;;;;;;1.73;1.40;;;;;;;;;;5047589;27;88895;-72
2022/11/15 05:50:58;;;;;;;1.53;1.40;;;;;;;;;;5083977;27;88011;-70
2022/11/15 05:53:26;;;;;;;1.93;1.30;;;;;;;;;;5084267;27;86887;-72
2022/11/15 05:55:54;;;;;;;2.90;1.83;;;;;;;;;;5082167;27;86949;-70
2022/11/15 05:58:23;;;;;;;1.60;1.37;;;;;;;;;;5082941;27;88483;-72
2022/11/15 06:00:51;;;;;;;2.37;1.60;;;;;;;;;;5081136;27;88088;-71
2022/11/15 06:03:19;;;;;;;2.27;1.67;;;;;;;;;;5084408;27;87032;-70
2022/11/15 06:05:49;;;;;;;1.17;1.07;;;;;;;;;;5068556;27;86272;-71
2022/11/15 06:08:17;;;;;;;1.83;1.37;;;;;;;;;;5051744;27;87488;-71
2022/11/15 06:10:46;;;;;;;1.53;1.20;;;;;;;;;;5068937;27;87739;-71
2022/11/15 06:13:14;;;;;;;1.40;0.87;;;;;;;;;;5063727;27;87901;-71
2022/11/15 06:15:42;;;;;;;2.50;1.73;;;;;;;;;;5065384;27;87269;-71
2022/11/15 06:18:11;;;;;;;1.60;1.30;;;;;;;;;;5063518;27;89116;-73
2022/11/15 06:20:39;;;;;;;1.83;1.50;;;;;;;;;;5069625;27;88824;-72
2022/11/15 06:23:09;;;;;;;2.30;1.10;;;;;;;;;;5063567;27;87072;-73
2022/11/15 06:25:37;;;;;;;1.77;1.47;;;;;;;;;;5068448;27;87018;-73
2022/11/15 06:28:06;;;;;;;1.27;1.17;;;;;;;;;;5063557;27;91259;-73
2022/11/15 06:30:34;;;;;;;2.97;1.37;;;;;;;;;;5075514;27;88445;-72
2022/11/15 06:33:02;;;;;;;1.90;1.30;;;;;;;;;;5084349;27;87085;-73
2022/11/15 06:35:32;;;;;;;0.77;0.77;;;;;;;;;;5082706;27;87005;-73
2022/11/15 06:38:03;;;;;;;1.37;1.20;;;;;;;;;;5083802;27;89233;-73
2022/11/15 06:40:34;;;;;;;2.20;1.23;;;;;;;;;;5075534;27;89967;-70
2022/11/15 06:43:02;;;;;;;1.73;1.30;;;;;;;;;;5063938;27;86982;-72
2022/11/15 06:45:30;;;;;;;1.60;1.40;;;;;;;;;;5065632;27;87061;-73
2022/11/15 06:47:59;;;;;;;2.80;1.40;;;;;;;;;;5065646;27;87483;-73
2022/11/15 06:50:27;;;;;;;3.27;1.40;;;;;;;;;;5077485;27;90927;-71
2022/11/15 06:52:55;;;;;;;1.53;0.90;;;;;;;;;;5063909;27;87109;-71
2022/11/15 06:55:24;;;;;;;1.90;1.30;;;;;;;;;;5073070;27;86281;-72
2022/11/15 06:57:54;;;;;;;3.23;1.50;;;;;;;;;;5081237;27;88926;-71
2022/11/15 07:00:22;;;;;;;0.90;0.90;;;;;;;;;;5075664;27;87787;-70
2022/11/15 07:02:51;;;;;;;1.33;1.23;;;;;;;;;;5063254;27;89270;-73
2022/11/15 07:05:19;;;;;;;1.03;1.00;;;;;;;;;;5064073;27;86870;-73
2022/11/15 07:07:53;;;;;;;1.73;0.97;;;;;;;;;;5062157;27;89229;-73
2022/11/15 07:10:21;;;;;;;1.83;1.30;;;;;;;;;;5063480;27;88366;-72
2022/11/15 07:12:49;;;;;;;0.70;0.70;;;;;;;;;;5063114;27;87072;-73
2022/11/15 07:15:19;;;;;;;1.10;1.00;;;;;;;;;;5067229;27;86911;-72
2022/11/15 07:17:47;;;;;;;2.13;1.43;;;;;;;;;;5072342;27;88202;-70
2022/11/15 07:20:16;;;;;;;1.73;1.13;;;;;;;;;;5069396;27;88878;-70
2022/11/15 07:22:45;;;;;;;1.33;0.90;;;;;;;;;;5068745;27;87508;-70
2022/11/15 07:25:14;;;;;;;2.63;0.93;;;;;;;;;;5073046;27;88753;-69
2022/11/15 07:27:42;;;;;;;2.00;0.70;;;;;;;;;;5061898;27;90208;-68
2022/11/15 07:30:12;;;;;;;1.70;0.90;;;;;;;;;;5075954;27;89366;-71
2022/11/15 07:32:44;;;;;;;1.10;0.87;;;;;;;;;;5083322;27;87048;-71
2022/11/15 07:35:12;;;;;;;3.60;0.90;;;;;;;;;;5065850;27;87111;-71
2022/11/15 07:37:41;;;;;;;0.83;0.73;;;;;;;;;;5082083;27;88143;-71
2022/11/15 07:40:10;;;;;;;2.47;1.27;;;;;;;;;;5080622;27;88305;-71
2022/11/15 07:42:53;;;;;;;1.77;1.00;;;;;;;;;;5054980;27;87070;-71
2022/11/15 07:45:22;;;;;;;1.13;0.73;;;;;;;;;;5049174;27;86521;-71
2022/11/15 07:47:51;;;;;;;1.70;1.07;;;;;;;;;;5075838;27;88886;-72
2022/11/15 07:50:20;;;;;;;0.80;0.77;;;;;;;;;;5061641;27;88682;-72
2022/11/15 07:52:48;;;;;;;1.60;0.80;;;;;;;;;;5059888;27;88124;-72
2022/11/15 07:55:17;;;;;;;1.33;1.00;;;;;;;;;;5068841;27;87035;-72
2022/11/15 07:57:45;;;;;;;1.67;0.90;;;;;;;;;;5066575;27;89497;-72
2022/11/15 08:00:15;;;;;;;1.30;0.77;;;;;;;;;;5073656;27;88816;-72
2022/11/15 08:02:43;;;;;;;1.50;0.90;;;;;;;;;;5069278;27;88768;-72
2022/11/15 08:05:14;;;;;;;1.03;0.93;;;;;;;;;;5075366;27;86859;-72
2022/11/15 08:07:42;;;;;;;1.73;0.90;;;;;;;;;;5048159;27;87621;-72
2022/11/15 08:10:11;;;;;;;0.77;0.60;;;;;;;;;;5064820;27;89060;-69
2022/11/15 08:12:40;;;;;;;3.80;1.00;;;;;;;;;;5069627;27;86884;-69
2022/11/15 08:15:08;;;;;;;0.97;0.67;;;;;;;;;;5062812;27;87072;-71
2022/11/15 08:17:37;;;;;;;1.17;0.80;;;;;;;;;;5064840;27;89053;-64
2022/11/15 08:20:05;;;;;;;1.03;0.63;;;;;;;;;;5075811;27;89821;-65
2022/11/15 08:22:36;;;;;;;1.00;0.67;;;;;;;;;;5065312;27;86899;-64
2022/11/15 08:25:06;;;;;;;1.10;0.90;;;;;;;;;;5074972;27;87162;-65
2022/11/15 08:27:34;;;;;;;0.70;0.70;;;;;;;;;;5067855;27;88852;-65
2022/11/15 08:30:03;;;;;;;1.13;0.63;;;;;;;;;;5064668;27;88752;-65
2022/11/15 08:32:32;;;;;;;3.57;1.00;;;;;;;;;;5065016;27;87076;-65
2022/11/15 08:35:00;;;;;;;0.63;0.57;;;;;;;;;;5065612;27;86203;-65
2022/11/15 08:37:28;;;;;;;0.73;0.73;;;;;;;;;;5069919;27;89198;-65
2022/11/15 08:39:56;;;;;;;1.13;0.57;;;;;;;;;;5085232;27;88433;-65
2022/11/15 08:42:26;;;;;;;0.50;0.50;;;;;;;;;;5085447;27;87805;-65
2022/11/15 08:44:54;;;;;;;0.97;0.70;;;;;;;;;;5085148;27;87067;-65
2022/11/15 08:47:23;;;;;;;0.87;0.73;;;;;;;;;;5079959;27;88878;-65
2022/11/15 08:49:52;;;;;;;0.40;0.40;;;;;;;;;;5063467;27;87183;-65
2022/11/15 08:52:20;;;;;;;3.00;1.10;;;;;;;;;;5044778;28;86975;-65
2022/11/15 08:54:48;;;;;;;1.90;0.70;;;;;;;;;;5060470;27;87047;-65
2022/11/15 08:57:17;;;;;;;0.50;0.50;;;;;;;;;;5084968;27;92139;-64
2022/11/15 08:59:46;;;;;;;1.00;0.73;;;;;;;;;;5084867;27;87965;-65
2022/11/15 09:02:15;;;;;;;0.50;0.50;;;;;;;;;;5077663;27;87825;-65
2022/11/15 09:04:43;;;;;;;0.73;0.60;;;;;;;;;;5058125;27;87108;-65
2022/11/15 09:07:12;;;;;;;4.93;0.90;;;;;;;;;;5064832;27;90454;-65
2022/11/15 09:09:41;;;;;;;0.63;0.63;;;;;;;;;;5064719;27;89283;-65
2022/11/15 09:12:09;;;;;;;2.30;0.77;;;;;;;;;;5064845;27;87236;-65
2022/11/15 09:14:37;;;;;;;0.93;0.63;;;;;;;;;;5064312;27;86928;-65
2022/11/15 09:17:09;;;;;;;2.03;1.03;;;;;;;;;;5064243;27;88489;-64
2022/11/15 09:19:38;;;;;;;1.03;0.70;;;;;;;;;;5064321;27;88758;-65
2022/11/15 09:22:07;;;;;;;0.40;0.40;;;;;;;;;;5064282;27;86756;-65
2022/11/15 09:24:35;;;;;;;1.43;0.70;;;;;;;;;;5064541;27;86349;-65
2022/11/15 09:27:04;;;;;;;0.83;0.43;;;;;;;;;;5064296;27;88874;-65
2022/11/15 09:29:33;;;;;;;0.63;0.60;;;;;;;;;;5064301;27;89017;-65
2022/11/15 09:32:01;;;;;;;0.60;0.60;;;;;;;;;;5064236;27;87991;-65
2022/11/15 09:34:31;;;;;;;0.50;0.47;;;;;;;;;;5064244;27;86794;-65
2022/11/15 09:37:00;;;;;;;0.47;0.47;;;;;;;;;;5064212;27;89180;-65
2022/11/15 09:39:28;;;;;;;1.50;0.50;;;;;;;;;;5064798;27;88774;-65
2022/11/15 09:42:11;;;;;;;0.63;0.60;;;;;;;;;;5066668;27;87069;-65
2022/11/15 09:44:42;;;;;;;0.40;0.40;;;;;;;;;;5083024;27;86987;-65
2022/11/15 09:47:17;;;;;;;0.93;0.80;;;;;;;;;;5085176;27;89128;-65
2022/11/15 09:49:47;;;;;;;1.77;0.50;;;;;;;;;;5085504;27;87920;-65
2022/11/15 09:52:21;;;;;;;0.97;0.67;;;;;;;;;;5084917;27;86991;-65
2022/11/15 09:54:49;;;;;;;0.50;0.50;;;;;;;;;;5084041;27;86714;-65
2022/11/15 09:57:22;;;;;;;1.27;0.40;;;;;;;;;;5085140;27;88032;-66
2022/11/15 10:00:02;;;;;;;0.47;0.47;;;;;;;;;;5084085;27;89213;-66
2022/11/15 10:03:11;;;;;;;0.30;0.30;;;;;;;;;;5074264;27;87198;-66
2022/11/15 10:05:41;;;;;;;1.07;0.60;;;;;;;;;;5050163;27;87664;-66
2022/11/15 10:08:13;;;;;;;0.40;0.40;;;;;;;;;;5063635;27;87657;-66
2022/11/15 10:10:42;;;;;;;3.60;0.53;;;;;;;;;;5060328;27;89073;-66
2022/11/15 10:13:12;;;;;;;0.77;0.73;;;;;;;;;;5064386;27;87017;-65
2022/11/15 10:15:40;;;;;;;0.30;0.30;;;;;;;;;;5064434;27;86208;-65
2022/11/15 10:18:10;;;;;;;0.40;0.30;;;;;;;;;;5065058;27;88800;-65
2022/11/15 10:20:44;;;;;;;1.03;0.80;;;;;;;;;;5063622;27;88792;-65
2022/11/15 10:23:13;;;;;;;0.73;0.40;;;;;;;;;;5043913;28;88441;-65
2022/11/15 10:25:41;;;;;;;0.33;0.30;;;;;;;;;;5043906;28;87031;-66
2022/11/15 10:28:11;;;;;;;1.33;0.53;;;;;;;;;;5044164;28;87916;-65
2022/11/15 10:30:41;;;;;;;0.90;0.70;;;;;;;;;;5047837;27;87576;-69
2022/11/15 10:33:25;;;;;;;0.80;0.57;;;;;;;;;;5061067;27;86906;-66
2022/11/15 10:36:08;;;;;;;0.40;0.40;;;;;;;;;;5064802;27;87010;-66
2022/11/15 10:38:44;;;;;;;0.53;0.33;;;;;;;;;;5062949;27;89436;-66
2022/11/15 10:41:12;;;;;;;1.50;0.37;;;;;;;;;;5064050;27;91323;-66
2022/11/15 10:43:41;;;;;;;0.40;0.40;;;;;;;;;;5058756;27;87058;-66
2022/11/15 10:46:18;;;;;;;0.50;0.50;;;;;;;;;;5062983;27;87041;-66
2022/11/15 10:49:16;;;;;;;0.33;0.33;;;;;;;;;;5063203;27;91476;-66
2022/11/15 10:51:46;;;;;;;0.73;0.60;;;;;;;;;;5058884;27;89989;-66
2022/11/15 10:54:15;;;;;;;0.50;0.40;;;;;;;;;;5064075;27;86846;-66
2022/11/15 10:56:50;;;;;;;0.50;0.50;;;;;;;;;;5064215;27;87064;-66
2022/11/15 10:59:21;;;;;;;0.20;0.20;;;;;;;;;;5063535;27;89058;-66
2022/11/15 11:01:49;;;;;;;0.47;0.40;;;;;;;;;;5045913;27;91380;-66
2022/11/15 11:04:19;;;;;;;0.67;0.40;;;;;;;;;;5043436;28;87040;-67
2022/11/15 11:06:48;;;;;;;0.60;0.47;;;;;;;;;;5044381;28;86158;-67
2022/11/15 11:09:30;;;;;;;0.70;0.43;;;;;;;;;;5043617;28;87994;-66
2022/11/15 11:11:59;;;;;;;1.00;0.50;;;;;;;;;;5043754;28;89315;-67
2022/11/15 11:14:28;;;;;;;0.40;0.30;;;;;;;;;;5043443;28;88792;-67
2022/11/15 11:16:57;;;;;;;0.33;0.33;;;;;;;;;;5042311;28;87576;-67
2022/11/15 11:19:44;;;;;;;0.20;0.20;;;;;;;;;;5042215;28;88218;-67
2022/11/15 11:22:15;;;;;;;0.37;0.30;;;;;;;;;;5042595;28;86896;-66
2022/11/15 11:24:46;;;;;;;0.67;0.43;;;;;;;;;;5043043;28;87118;-66
2022/11/15 11:27:27;;;;;;;0.60;0.50;;;;;;;;;;5043400;28;86914;-66
2022/11/15 11:30:00;;;;;;;0.30;0.30;;;;;;;;;;5042616;28;88570;-66
2022/11/15 11:32:32;;;;;;;0.20;0.20;;;;;;;;;;5043393;28;87374;-66
2022/11/15 11:35:03;;;;;;;0.43;0.40;;;;;;;;;;5043183;28;87032;-66
2022/11/15 11:37:33;;;;;;;0.50;0.40;;;;;;;;;;5043088;28;87046;-67
2022/11/15 11:40:06;;;;;;;0.60;0.40;;;;;;;;;;5042566;28;89010;-68
2022/11/15 11:42:39;;;;;;;0.30;0.30;;;;;;;;;;5042225;28;89668;-68
2022/11/15 11:45:12;;;;;;;0.27;0.27;;;;;;;;;;5043075;28;87011;-68
2022/11/15 11:47:41;;;;;;;1.00;0.73;;;;;;;;;;5042484;28;86967;-69
2022/11/15 11:50:12;;;;;;;1.13;0.80;;;;;;;;;;5041721;28;89283;-69
2022/11/15 11:52:42;;;;;;;0.40;0.40;;;;;;;;;;5040544;28;88776;-68
2022/11/15 11:55:16;;;;;;;0.70;0.70;;;;;;;;;;5041207;28;87027;-68
2022/11/15 11:57:46;;;;;;;0.50;0.50;;;;;;;;;;5041605;28;86334;-69
2022/11/15 12:00:16;;;;;;;3.27;0.53;;;;;;;;;;5041109;28;88872;-69
2022/11/15 12:02:45;;;;;;;0.53;0.53;;;;;;;;;;5041015;28;87072;-68
2022/11/15 12:05:15;;;;;;;2.50;0.50;;;;;;;;;;5040464;28;87987;-69
2022/11/15 12:07:43;;;;;;;0.47;0.47;;;;;;;;;;5038161;27;89069;-69
2022/11/15 12:10:20;;;;;;;1.77;0.80;;;;;;;;;;5050579;27;89123;-68
2022/11/15 12:12:51;;;;;;;0.87;0.40;;;;;;;;;;5063176;27;87683;-68
2022/11/15 12:15:20;;;;;;;0.83;0.57;;;;;;;;;;5063562;27;86960;-68
2022/11/15 12:17:48;;;;;;;1.00;0.67;;;;;;;;;;5063502;27;86898;-68
2022/11/15 12:20:17;;;;;;;0.63;0.43;;;;;;;;;;5046533;27;88980;-69
2022/11/15 12:22:46;;;;;;;1.40;0.60;;;;;;;;;;5042613;28;91054;-68
2022/11/15 12:25:16;;;;;;;0.57;0.57;;;;;;;;;;5042746;28;87023;-68
2022/11/15 12:27:47;;;;;;;3.97;0.60;;;;;;;;;;5057840;27;86991;-68
2022/11/15 12:30:15;;;;;;;1.07;0.43;;;;;;;;;;5045804;27;92772;-67
2022/11/15 12:32:51;;;;;;;1.13;0.53;;;;;;;;;;5030899;28;89795;-66
2022/11/15 12:35:23;;;;;;;2.23;0.37;;;;;;;;;;5034533;28;87045;-67
2022/11/15 12:37:52;;;;;;;0.53;0.50;;;;;;;;;;5042099;28;87699;-67
2022/11/15 12:40:24;;;;;;;0.40;0.40;;;;;;;;;;5043145;28;88168;-67
2022/11/15 12:43:04;;;;;;;3.17;0.60;;;;;;;;;;5046408;28;88912;-66
2022/11/15 12:45:33;;;;;;;0.50;0.47;;;;;;;;;;5051138;27;87228;-67
2022/11/15 12:48:20;;;;;;;0.33;0.33;;;;;;;;;;5065276;27;86318;-66
2022/11/15 12:50:55;;;;;;;0.50;0.40;;;;;;;;;;5055658;27;88923;-66
2022/11/15 12:53:30;;;;;;;1.33;0.30;;;;;;;;;;5055018;27;87834;-66
2022/11/15 12:56:17;;;;;;;0.30;0.30;;;;;;;;;;5055584;27;87940;-66
2022/11/15 12:58:47;;;;;;;0.40;0.40;;;;;;;;;;5045098;27;86886;-70
2022/11/15 13:01:31;;;;;;;2.20;0.30;;;;;;;;;;5050475;27;88852;-71
2022/11/15 13:04:10;;;;;;;0.47;0.30;;;;;;;;;;5031504;27;87478;-70
2022/11/15 13:06:39;;;;;;;0.40;0.40;;;;;;;;;;5030130;28;86986;-70
2022/11/15 13:09:22;;;;;;;1.20;0.30;;;;;;;;;;5025285;28;86875;-71
2022/11/15 13:11:52;;;;;;;1.70;0.40;;;;;;;;;;5043040;27;89031;-70
2022/11/15 13:14:39;;;;;;;0.30;0.30;;;;;;;;;;5044408;28;88834;-70
2022/11/15 13:17:41;;;;;;;0.53;0.40;;;;;;;;;;5057929;27;87014;-70
2022/11/15 13:20:27;;;;;;;0.20;0.20;;;;;;;;;;5065518;27;87028;-70
2022/11/15 13:23:02;;;;;;;0.53;0.43;;;;;;;;;;5065020;27;92441;-68
2022/11/15 13:25:55;;;;;;;0.77;0.40;;;;;;;;;;5064734;27;89482;-70
2022/11/15 13:28:25;;;;;;;0.93;0.70;;;;;;;;;;5065461;27;87016;-70
2022/11/15 13:30:54;;;;;;;1.60;0.53;;;;;;;;;;5064910;27;87025;-69
2022/11/15 13:33:24;;;;;;;0.57;0.30;;;;;;;;;;5065552;27;89164;-68
2022/11/15 13:35:53;;;;;;;0.20;0.20;;;;;;;;;;5065912;27;88892;-70
2022/11/15 13:38:28;;;;;;;1.57;0.60;;;;;;;;;;5065537;27;87100;-69
2022/11/15 13:40:57;;;;;;;0.20;0.20;;;;;;;;;;5065631;27;86271;-69
2022/11/15 13:43:28;;;;;;;1.80;0.50;;;;;;;;;;5065373;27;89168;-69
2022/11/15 13:46:05;;;;;;;1.17;0.30;;;;;;;;;;5064248;27;87546;-69
2022/11/15 13:48:34;;;;;;;0.40;0.30;;;;;;;;;;5065628;27;87825;-69
2022/11/15 13:51:03;;;;;;;0.40;0.40;;;;;;;;;;5064065;27;87064;-69
2022/11/15 13:53:33;;;;;;;0.40;0.40;;;;;;;;;;5064918;27;89468;-70
2022/11/15 13:56:03;;;;;;;0.30;0.30;;;;;;;;;;5065403;27;88525;-69
2022/11/15 13:58:32;;;;;;;0.40;0.40;;;;;;;;;;5066560;27;86986;-69
2022/11/15 14:01:02;;;;;;;0.30;0.30;;;;;;;;;;5068313;27;87103;-69
2022/11/15 14:03:30;;;;;;;0.50;0.40;;;;;;;;;;5084991;27;87859;-69
2022/11/15 14:06:04;;;;;;;1.33;0.50;;;;;;;;;;5085775;27;88668;-70
2022/11/15 14:08:34;;;;;;;0.30;0.30;;;;;;;;;;5085843;27;86706;-69
2022/11/15 14:11:16;;;;;;;1.60;0.40;;;;;;;;;;5085219;27;86990;-69
2022/11/15 14:14:00;;;;;;;0.63;0.30;;;;;;;;;;5084595;27;90015;-70
2022/11/15 14:16:34;;;;;;;0.50;0.50;;;;;;;;;;5084480;27;89490;-69
2022/11/15 14:19:02;;;;;;;1.13;0.40;;;;;;;;;;5085842;27;86764;-70
2022/11/15 14:21:31;;;;;;;0.50;0.43;;;;;;;;;;5085710;27;87044;-69
2022/11/15 14:24:14;;;;;;;0.30;0.30;;;;;;;;;;5084938;27;89311;-69
2022/11/15 14:26:44;;;;;;;2.20;0.90;;;;;;;;;;5084884;27;88729;-69
2022/11/15 14:29:25;;;;;;;0.30;0.30;;;;;;;;;;5072377;27;87100;-71
2022/11/15 14:31:53;;;;;;;0.73;0.40;;;;;;;;;;5068691;27;86377;-65
2022/11/15 14:34:22;;;;;;;0.47;0.40;;;;;;;;;;5067125;27;88002;-65
2022/11/15 14:36:50;;;;;;;8.83;0.73;;;;;;;;;;5062439;27;88981;-64
2022/11/15 14:39:18;;;;;;;0.50;0.50;;;;;;;;;;5069484;27;89791;-71
2022/11/15 14:41:48;;;;;;;0.30;0.30;;;;;;;;;;5069338;27;88812;-68
2022/11/15 14:44:18;;;;;;;1.27;0.40;;;;;;;;;;5067574;27;89049;-70
2022/11/15 14:46:47;;;;;;;4.67;0.67;;;;;;;;;;5068732;27;87375;-69
2022/11/15 14:49:16;;;;;;;0.87;0.43;;;;;;;;;;5068229;27;87338;-70
2022/11/15 14:51:44;;;;;;;0.40;0.40;;;;;;;;;;5069231;27;88861;-69
2022/11/15 14:54:13;;;;;;;0.20;0.20;;;;;;;;;;5066259;27;89077;-69
2022/11/15 14:56:42;;;;;;;0.30;0.30;;;;;;;;;;5068419;27;88060;-68
2022/11/15 14:59:12;;;;;;;0.77;0.20;;;;;;;;;;5067615;27;87406;-69
2022/11/15 15:01:40;;;;;;;1.07;0.27;;;;;;;;;;5070527;27;87141;-69
2022/11/15 15:04:10;;;;;;;0.80;0.40;;;;;;;;;;5067652;27;92379;-69
2022/11/15 15:06:38;;;;;;;0.30;0.30;;;;;;;;;;5084632;27;92196;-70
2022/11/15 15:09:07;;;;;;;0.30;0.30;;;;;;;;;;5084887;27;86899;-69
2022/11/15 15:11:35;;;;;;;0.30;0.30;;;;;;;;;;5085075;27;86753;-69
2022/11/15 15:14:03;;;;;;;0.40;0.40;;;;;;;;;;5084109;27;89155;-69
2022/11/15 15:16:33;;;;;;;0.93;0.50;;;;;;;;;;5084343;27;87593;-69